createdAt,value
2019-03-11T00:02:31.704Z,99596.78
2019-03-11T00:07:36.281Z,99595.31
2019-03-11T00:12:40.675Z,99616.25
2019-03-11T00:17:45.012Z,99627.87
2019-03-11T00:22:49.320Z,99631.16
2019-03-11T00:27:53.731Z,99631.16
2019-03-11T00:32:58.205Z,99633.25
2019-03-11T00:38:02.494Z,99647.66
2019-03-11T00:43:06.783Z,99651.24
2019-03-11T00:48:11.173Z,99651.24
2019-03-11T00:53:15.580Z,99649.27
2019-03-11T00:58:21.221Z,99662.23
2019-03-11T01:03:25.451Z,99662.23
2019-03-11T01:08:29.750Z,99662.23
2019-03-11T01:13:33.972Z,99648.16
2019-03-11T01:18:38.172Z,99655.50
2019-03-11T01:23:42.408Z,99649.99
2019-03-11T01:28:46.564Z,99649.99
2019-03-11T01:33:50.730Z,99643.13
2019-03-11T01:38:54.962Z,99638.59
2019-03-11T01:43:59.126Z,99626.00
2019-03-11T01:49:03.250Z,99638.20
2019-03-11T01:54:07.363Z,99646.77
2019-03-11T01:59:11.394Z,99634.92
2019-03-11T02:04:15.538Z,99634.92
2019-03-11T02:09:19.731Z,99625.11
2019-03-11T02:14:23.902Z,99625.11
2019-03-11T02:19:27.932Z,99632.08
2019-03-11T02:24:31.948Z,99642.20
2019-03-11T02:29:36.226Z,99642.20
2019-03-11T02:34:40.304Z,99639.27
2019-03-11T02:39:44.362Z,99639.27
2019-03-11T02:44:48.508Z,99639.38
2019-03-11T02:49:52.633Z,99647.58
2019-03-11T02:54:56.736Z,99620.37
2019-03-11T03:00:00.840Z,99629.31
2019-03-11T03:05:12.858Z,99636.30
2019-03-11T03:10:17.020Z,99621.84
2019-03-11T03:15:21.055Z,99635.30
2019-03-11T03:20:25.072Z,99645.55
2019-03-11T03:25:34.333Z,99647.50
2019-03-11T03:30:35.005Z,99647.50
2019-03-11T03:35:39.124Z,99639.98
2019-03-11T03:40:43.172Z,99639.98
2019-03-11T03:45:47.298Z,99641.59
2019-03-11T03:50:51.331Z,99644.64
2019-03-11T03:55:55.334Z,99621.23
2019-03-11T04:00:59.420Z,99623.72
2019-03-11T04:06:03.507Z,99620.92
2019-03-11T04:11:07.698Z,99593.34
2019-03-11T04:16:11.909Z,99593.34
2019-03-11T04:21:16.049Z,99609.41
2019-03-11T04:26:20.305Z,99603.76
2019-03-11T04:31:24.403Z,99597.36
2019-03-11T04:36:28.494Z,99614.36
2019-03-11T04:41:32.526Z,99580.38
2019-03-11T04:46:36.686Z,99591.15
2019-03-11T04:51:40.987Z,99584.30
2019-03-11T04:56:45.286Z,99562.89
2019-03-11T05:01:49.479Z,99575.73
2019-03-11T05:06:53.593Z,99568.16
2019-03-11T05:11:57.826Z,99557.64
2019-03-11T05:17:01.930Z,99572.80
2019-03-11T05:22:06.131Z,99572.80
2019-03-11T05:27:10.131Z,99565.72
2019-03-11T05:32:14.153Z,99558.15
2019-03-11T05:37:18.297Z,99553.12
2019-03-11T05:42:22.381Z,99537.98
2019-03-11T05:47:26.571Z,99537.98
2019-03-11T05:52:30.632Z,99541.86
2019-03-11T05:57:34.621Z,99545.62
2019-03-11T06:02:38.734Z,99538.17
2019-03-11T06:07:42.925Z,99540.00
2019-03-11T06:12:47.099Z,99548.19
2019-03-11T06:17:51.305Z,99546.08
2019-03-11T06:22:55.745Z,99546.08
2019-03-11T06:27:59.825Z,99547.55
2019-03-11T06:33:03.921Z,99541.66
2019-03-11T06:38:08.008Z,99535.56
2019-03-11T06:43:12.033Z,99533.95
2019-03-11T06:48:16.040Z,99534.56
2019-03-11T06:53:20.059Z,99534.56
2019-03-11T06:58:24.060Z,99562.73
2019-03-11T07:03:28.081Z,99571.61
2019-03-11T07:08:32.083Z,99582.97
2019-03-11T07:13:36.165Z,99576.34
2019-03-11T07:18:40.172Z,99576.34
2019-03-11T07:23:44.245Z,99594.08
2019-03-11T07:28:48.239Z,99604.08
2019-03-11T07:33:52.323Z,99590.83
2019-03-11T07:38:56.316Z,99598.55
2019-03-11T07:44:00.323Z,99598.55
2019-03-11T07:49:04.454Z,99604.41
2019-03-11T07:54:08.536Z,99604.41
2019-03-11T07:59:12.540Z,99586.28
2019-03-11T08:04:16.644Z,99586.28
2019-03-11T08:09:20.925Z,99612.06
2019-03-11T08:14:24.954Z,99597.14
2019-03-11T08:19:29.010Z,99601.73
2019-03-11T08:24:33.047Z,99608.56
2019-03-11T08:29:37.089Z,99612.02
2019-03-11T08:34:41.137Z,99612.02
2019-03-11T08:39:45.185Z,99625.66
2019-03-11T08:44:49.581Z,99619.42
2019-03-11T08:49:53.802Z,99619.42
2019-03-11T08:54:58.084Z,99630.62
2019-03-11T09:00:02.316Z,99630.62
2019-03-11T09:05:07.984Z,99629.55
2019-03-11T09:10:13.433Z,99638.84
2019-03-11T09:15:17.670Z,99638.84
2019-03-11T09:20:21.840Z,99635.55
2019-03-11T09:25:26.103Z,99629.31
2019-03-11T09:30:30.236Z,99634.56
2019-03-11T09:35:34.430Z,99652.02
2019-03-11T09:40:38.473Z,99652.02
2019-03-11T09:45:42.496Z,99644.45
2019-03-11T09:50:46.602Z,99643.35
2019-03-11T09:55:50.695Z,99647.75
2019-03-11T10:00:54.738Z,99653.20
2019-03-11T10:05:58.763Z,99653.20
2019-03-11T10:11:02.788Z,99654.91
2019-03-11T10:16:06.978Z,99648.72
2019-03-11T10:21:11.059Z,99649.94
2019-03-11T10:26:15.198Z,99649.94
2019-03-11T10:31:19.218Z,99649.45
2019-03-11T10:36:23.249Z,99649.45
2019-03-11T10:41:27.344Z,99657.51
2019-03-11T10:46:31.479Z,99648.68
2019-03-11T10:51:35.564Z,99652.98
2019-03-11T10:56:39.597Z,99648.92
2019-03-11T11:01:43.698Z,99662.02
2019-03-11T11:06:47.825Z,99666.94
2019-03-11T11:11:52.130Z,99670.85
2019-03-11T11:16:56.150Z,99673.17
2019-03-11T11:22:00.206Z,99678.78
2019-03-11T11:27:04.327Z,99678.78
2019-03-11T11:32:08.675Z,99677.56
2019-03-11T11:37:12.699Z,99687.16
2019-03-11T11:42:16.703Z,99686.80
2019-03-11T11:47:20.730Z,99668.00
2019-03-11T11:52:24.847Z,99668.00
2019-03-11T11:57:28.961Z,99692.33
2019-03-11T12:02:33.070Z,99684.41
2019-03-11T12:07:37.085Z,99684.41
2019-03-11T12:12:41.104Z,99680.23
2019-03-11T12:17:45.202Z,99680.23
2019-03-11T12:22:49.349Z,99694.05
2019-03-11T12:27:54.751Z,99698.59
2019-03-11T12:32:59.190Z,99706.11
2019-03-11T12:38:03.414Z,99712.08
2019-03-11T12:43:07.646Z,99712.08
2019-03-11T12:48:12.008Z,99719.20
2019-03-11T12:53:16.350Z,99719.20
2019-03-11T12:58:20.600Z,99739.02
2019-03-11T13:03:26.696Z,99739.02
2019-03-11T13:08:34.319Z,99727.66
2019-03-11T13:13:38.330Z,99711.70
2019-03-11T13:18:44.038Z,99715.08
2019-03-11T13:23:48.077Z,99715.08
2019-03-11T13:28:52.069Z,99707.17
2019-03-11T13:33:56.189Z,99707.17
2019-03-11T13:39:00.287Z,99749.04
2019-03-11T13:44:04.377Z,99733.73
2019-03-11T13:49:08.464Z,99745.20
2019-03-11T13:54:12.489Z,99755.19
2019-03-11T13:59:16.593Z,99765.77
2019-03-11T14:04:21.070Z,99780.05
2019-03-11T14:09:25.460Z,99781.70
2019-03-11T14:14:50.121Z,99822.77
2019-03-11T14:19:59.067Z,99822.77
2019-03-11T14:25:05.011Z,99796.15
2019-03-11T14:30:10.419Z,99802.03
2019-03-11T14:35:14.648Z,99802.03
2019-03-11T14:40:18.847Z,99817.66
2019-03-11T14:45:50.221Z,99816.70
2019-03-11T14:50:29.176Z,99815.09
2019-03-11T14:55:33.352Z,99815.09
2019-03-11T15:00:37.677Z,99824.06
2019-03-11T15:05:41.825Z,99829.59
2019-03-11T15:10:46.214Z,99832.11
2019-03-11T15:15:50.586Z,99832.11
2019-03-11T15:20:55.057Z,99830.68
2019-03-11T15:25:59.481Z,99840.98
2019-03-11T15:31:10.400Z,99847.28
2019-03-11T15:36:09.505Z,99851.71
2019-03-11T15:46:40.710Z,99853.17
2019-03-11T15:51:46.745Z,99852.43
2019-03-11T15:57:10.445Z,99856.08
2019-03-11T16:02:44.386Z,99857.61
2019-03-11T16:36:18.575Z,99869.82
2019-03-11T16:46:12.228Z,99896.86
2019-03-11T16:51:16.565Z,99898.65
2019-03-11T16:56:21.003Z,99916.42
2019-03-11T17:01:25.164Z,99919.23
2019-03-11T17:06:29.410Z,99927.61
2019-03-11T17:11:33.814Z,99933.94
2019-03-11T17:16:38.174Z,99930.86
2019-03-11T17:21:42.386Z,99930.86
2019-03-11T17:26:46.572Z,99943.05
2019-03-11T17:31:50.711Z,99936.53
2019-03-11T17:36:54.871Z,99936.53
2019-03-11T17:41:59.010Z,99937.39
2019-03-11T17:47:03.239Z,99950.47
2019-03-11T17:52:07.523Z,99959.11
2019-03-11T17:57:11.717Z,99981.47
2019-03-11T18:02:16.136Z,99977.73
2019-03-11T18:07:48.760Z,99966.21
2019-03-11T18:12:59.972Z,99981.84
2019-03-11T18:18:16.882Z,99984.05
2019-03-11T18:23:34.972Z,99985.14
2019-03-11T18:28:39.374Z,99988.67
2019-03-11T19:12:52.287Z,100004.73
2019-03-11T19:18:52.344Z,100004.73
2019-03-11T19:24:07.239Z,100000.73
2019-03-11T19:29:39.964Z,100015.23
2019-03-11T19:40:41.646Z,100024.66
2019-03-11T19:45:48.131Z,100019.86
2019-03-11T20:45:28.750Z,100133.00
2019-03-11T21:35:20.698Z,100212.77
2019-03-11T21:52:21.780Z,100254.49
2019-03-11T21:57:38.041Z,100267.29
2019-03-11T22:02:48.116Z,100275.27
2019-03-11T22:07:52.816Z,100275.27
2019-03-11T22:13:09.542Z,100305.97
2019-03-11T22:18:23.910Z,100305.97
2019-03-11T22:30:34.663Z,100339.81
2019-03-11T22:35:44.882Z,100335.06
2019-03-11T22:51:38.923Z,100375.40
2019-03-11T23:47:22.005Z,100489.98
2019-03-11T23:52:26.927Z,100501.93
2019-03-11T23:57:31.715Z,100512.50
